createdAt,value
2018-06-22T00:05:09.192Z,95923.31
2018-06-22T00:07:42.655Z,95922.42
2018-06-22T00:10:15.236Z,95928.99
2018-06-22T00:12:48.472Z,95932.14
2018-06-22T00:15:20.418Z,95933.84
2018-06-22T00:17:53.722Z,95937.65
2018-06-22T00:20:25.401Z,95941.00
2018-06-22T00:22:58.625Z,95942.20
2018-06-22T00:25:31.855Z,95946.87
2018-06-22T00:28:06.316Z,95937.28
2018-06-22T00:33:14.223Z,95947.33
2018-06-22T00:35:48.526Z,95947.39
2018-06-22T00:38:19.844Z,95953.22
2018-06-22T00:40:52.006Z,95955.22
2018-06-22T00:43:23.591Z,95952.68
2018-06-22T00:45:56.651Z,95952.45
2018-06-22T00:48:29.723Z,95956.55
2018-06-22T00:51:02.146Z,95958.36
2018-06-22T00:56:11.595Z,95953.03
2018-06-22T00:58:45.196Z,95954.83
2018-06-22T01:01:18.004Z,95958.41
2018-06-22T01:03:50.477Z,95966.08
2018-06-22T01:06:23.465Z,95965.53
2018-06-22T01:11:33.252Z,95969.16
2018-06-22T01:14:06.128Z,95972.38
2018-06-22T01:16:39.091Z,95969.12
2018-06-22T01:19:11.403Z,95968.95
2018-06-22T01:21:44.943Z,95967.49
2018-06-22T01:24:18.901Z,95973.63
2018-06-22T01:26:54.359Z,95973.64
2018-06-22T01:29:28.070Z,95973.91
2018-06-22T01:32:01.359Z,95981.38
2018-06-22T01:34:36.084Z,95986.92
2018-06-22T01:37:09.273Z,95993.24
2018-06-22T01:39:38.702Z,95995.52
2018-06-22T01:42:08.661Z,95995.36
2018-06-22T01:44:37.734Z,95995.64
2018-06-22T01:47:07.062Z,95990.11
2018-06-22T01:49:36.154Z,95988.88
2018-06-22T01:52:05.211Z,95992.16
2018-06-22T01:54:34.268Z,95994.80
2018-06-22T01:57:03.910Z,95998.80
2018-06-22T01:59:32.969Z,96007.24
2018-06-22T02:02:02.969Z,96007.20
2018-06-22T02:04:32.262Z,96011.27
2018-06-22T02:07:01.458Z,96007.80
2018-06-22T02:09:30.492Z,96007.36
2018-06-22T02:14:09.922Z,96017.58
2018-06-22T02:16:38.974Z,96013.50
2018-06-22T02:21:44.179Z,96018.98
2018-06-22T02:24:13.209Z,96018.19
2018-06-22T02:26:42.269Z,96016.81
2018-06-22T02:29:11.681Z,96022.42
2018-06-22T02:31:40.748Z,96020.45
2018-06-22T02:34:09.900Z,96023.52
2018-06-22T02:36:39.311Z,96026.83
2018-06-22T02:39:08.376Z,96031.28
2018-06-22T02:41:37.423Z,96035.45
2018-06-22T02:44:06.461Z,96037.11
2018-06-22T02:46:35.793Z,96032.57
2018-06-22T02:49:04.838Z,96038.94
2018-06-22T02:51:33.871Z,96042.78
2018-06-22T02:59:18.708Z,96043.02
2018-06-22T03:01:47.993Z,96038.77
2018-06-22T03:04:17.037Z,96041.76
2018-06-22T03:06:46.092Z,96044.19
2018-06-22T03:09:15.352Z,96044.50
2018-06-22T03:11:44.396Z,96043.32
2018-06-22T03:14:13.445Z,96046.30
2018-06-22T03:19:18.191Z,96046.27
2018-06-22T03:21:47.227Z,96055.53
2018-06-22T03:26:53.241Z,96055.30
2018-06-22T03:29:23.305Z,96060.42
2018-06-22T03:31:52.583Z,96062.70
2018-06-22T03:34:21.615Z,96060.72
2018-06-22T03:36:50.662Z,96063.86
2018-06-22T03:39:20.841Z,96066.66
2018-06-22T03:41:49.884Z,96069.66
2018-06-22T03:44:18.940Z,96068.39
2018-06-22T03:46:48.112Z,96071.46
2018-06-22T03:49:18.342Z,96073.36
2018-06-22T03:51:47.389Z,96071.16
2018-06-22T03:54:16.437Z,96070.61
2018-06-22T03:56:45.871Z,96065.84
2018-06-22T04:01:50.791Z,96065.58
2018-06-22T04:04:20.018Z,96065.78
2018-06-22T04:06:49.033Z,96068.64
2018-06-22T04:09:19.130Z,96071.67
2018-06-22T04:14:28.252Z,96074.44
2018-06-22T04:16:57.305Z,96072.67
2018-06-22T04:22:02.123Z,96065.38
2018-06-22T04:24:31.311Z,96074.36
2018-06-22T04:27:00.450Z,96073.81
2018-06-22T04:29:29.501Z,96073.67
2018-06-22T04:31:58.544Z,96072.02
2018-06-22T04:34:27.844Z,96077.73
2018-06-22T04:36:56.943Z,96079.80
2018-06-22T04:39:25.974Z,96081.61
2018-06-22T04:41:55.026Z,96072.80
2018-06-22T04:46:59.844Z,96078.02
2018-06-22T04:49:29.442Z,96077.01
2018-06-22T04:51:58.713Z,96079.05
2018-06-22T04:54:27.769Z,96084.14
2018-06-22T04:56:57.005Z,96086.94
2018-06-22T04:59:27.070Z,96091.67
2018-06-22T05:01:56.092Z,96084.98
2018-06-22T05:04:25.145Z,96086.82
2018-06-22T05:06:54.412Z,96081.73
2018-06-22T05:09:23.499Z,96083.92
2018-06-22T05:11:52.575Z,96081.59
2018-06-22T05:14:21.669Z,96082.72
2018-06-22T05:16:50.735Z,96079.30
2018-06-22T05:19:19.786Z,96079.76
2018-06-22T05:21:48.891Z,96077.15
2018-06-22T05:24:18.027Z,96079.95
2018-06-22T05:26:47.077Z,96078.27
2018-06-22T05:29:16.237Z,96072.77
2018-06-22T05:31:45.406Z,96079.36
2018-06-22T05:34:14.497Z,96086.80
2018-06-22T05:36:43.549Z,96082.31
2018-06-22T05:39:12.961Z,96089.44
2018-06-22T05:41:42.024Z,96083.72
2018-06-22T05:44:11.102Z,96085.07
2018-06-22T05:49:16.869Z,96084.33
2018-06-22T05:51:50.975Z,96084.45
2018-06-22T05:54:20.036Z,96082.27
2018-06-22T05:57:02.067Z,96088.11
2018-06-22T05:59:46.662Z,96082.47
2018-06-22T06:02:30.852Z,96084.77
2018-06-22T06:05:18.905Z,96081.72
2018-06-22T06:07:52.348Z,96079.07
2018-06-22T06:10:21.406Z,96074.04
2018-06-22T06:13:07.786Z,96071.45
2018-06-22T06:15:37.928Z,96071.62
2018-06-22T06:20:44.818Z,96067.27
2018-06-22T06:23:14.316Z,96072.11
2018-06-22T06:25:47.752Z,96066.91
2018-06-22T06:28:17.358Z,96061.58
2018-06-22T06:30:47.361Z,96052.27
2018-06-22T06:33:16.401Z,96052.82
2018-06-22T06:35:50.018Z,96053.80
2018-06-22T06:38:19.053Z,96044.94
2018-06-22T06:40:52.655Z,96045.69
2018-06-22T06:43:21.910Z,96041.80
2018-06-22T06:45:50.968Z,96038.14
2018-06-22T06:50:55.927Z,96033.83
2018-06-22T06:53:25.012Z,96035.56
2018-06-22T06:55:58.719Z,96040.22
2018-06-22T06:58:27.799Z,96037.59
2018-06-22T07:00:57.169Z,96034.00
2018-06-22T07:03:26.227Z,96035.20
2018-06-22T07:08:31.330Z,96036.48
2018-06-22T07:11:00.365Z,96044.48
2018-06-22T07:13:29.398Z,96039.16
2018-06-22T07:15:58.972Z,96040.47
2018-06-22T07:18:28.964Z,96041.79
2018-06-22T07:20:58.038Z,96045.08
2018-06-22T07:23:32.689Z,96046.90
2018-06-22T07:28:41.611Z,96041.94
2018-06-22T07:31:11.869Z,96047.61
2018-06-22T07:33:40.912Z,96049.98
2018-06-22T07:36:09.987Z,96051.85
2018-06-22T07:38:47.180Z,96057.45
2018-06-22T07:41:16.229Z,96057.77
2018-06-22T07:43:45.286Z,96049.97
2018-06-22T07:48:51.087Z,96043.09
2018-06-22T07:51:20.173Z,96046.02
2018-06-22T07:53:51.189Z,96045.47
2018-06-22T07:56:22.917Z,96039.14
2018-06-22T07:58:56.141Z,96037.36
2018-06-22T08:01:25.785Z,96036.45
2018-06-22T08:03:54.867Z,96041.79
2018-06-22T08:06:25.914Z,96045.55
2018-06-22T08:08:55.095Z,96043.63
2018-06-22T08:11:38.489Z,96038.37
2018-06-22T08:14:07.999Z,96042.89
2018-06-22T08:16:46.013Z,96042.25
2018-06-22T08:19:16.298Z,96039.88
2018-06-22T08:21:45.365Z,96027.66
2018-06-22T08:24:16.723Z,96025.75
2018-06-22T08:29:23.130Z,96034.52
2018-06-22T08:31:52.335Z,96034.68
2018-06-22T08:36:57.428Z,96031.97
2018-06-22T08:39:26.474Z,96037.52
2018-06-22T08:41:55.616Z,96032.69
2018-06-22T08:44:27.406Z,96044.99
2018-06-22T08:47:00.072Z,96040.59
2018-06-22T08:49:38.032Z,96044.98
2018-06-22T08:52:09.785Z,96053.47
2018-06-22T08:54:42.016Z,96060.95
2018-06-22T08:59:52.969Z,96064.17
2018-06-22T09:02:26.376Z,96068.91
2018-06-22T09:04:58.974Z,96072.70
2018-06-22T09:10:09.152Z,96083.26
2018-06-22T09:12:42.279Z,96082.81
2018-06-22T09:15:18.182Z,96073.40
2018-06-22T09:17:51.749Z,96081.97
2018-06-22T09:20:35.243Z,96079.25
2018-06-22T09:23:31.086Z,96079.86
2018-06-22T09:28:40.640Z,96074.31
2018-06-22T09:33:52.250Z,96052.31
2018-06-22T09:39:01.900Z,96065.73
2018-06-22T09:41:34.709Z,96077.96
2018-06-22T09:44:16.457Z,96072.80
2018-06-22T09:46:49.906Z,96068.00
2018-06-22T09:49:22.894Z,96057.95
2018-06-22T09:51:56.041Z,96066.48
2018-06-22T09:54:34.432Z,96050.17
2018-06-22T09:57:07.549Z,96054.46
2018-06-22T09:59:40.745Z,96056.83
2018-06-22T10:04:50.003Z,96070.20
2018-06-22T10:07:22.769Z,96066.80
2018-06-22T10:09:55.143Z,96069.42
2018-06-22T10:12:26.256Z,96063.15
2018-06-22T10:14:59.327Z,96067.11
2018-06-22T10:17:34.312Z,96060.91
2018-06-22T10:20:27.070Z,96073.66
2018-06-22T10:22:59.548Z,96070.16
2018-06-22T10:25:32.050Z,96069.50
2018-06-22T10:28:11.472Z,96068.13
2018-06-22T10:30:46.006Z,96065.98
2018-06-22T10:33:18.944Z,96065.20
2018-06-22T10:35:51.355Z,96061.91
2018-06-22T10:38:28.719Z,96060.69
2018-06-22T10:41:00.697Z,96064.65
2018-06-22T10:43:33.007Z,96062.35
2018-06-22T10:46:05.912Z,96070.69
2018-06-22T10:48:48.489Z,96058.59
2018-06-22T10:51:21.466Z,96065.37
2018-06-22T10:53:53.119Z,96058.48
2018-06-22T10:56:47.965Z,96064.28
2018-06-22T11:01:59.263Z,96061.41
2018-06-22T11:04:40.083Z,96051.86
2018-06-22T11:07:15.064Z,96060.57
2018-06-22T11:09:49.023Z,96064.84
2018-06-22T11:12:23.764Z,96066.59
2018-06-22T11:14:55.128Z,96069.76
2018-06-22T11:20:04.345Z,96069.15
2018-06-22T11:22:38.801Z,96065.73
2018-06-22T11:27:48.349Z,96068.48
2018-06-22T11:30:29.113Z,96073.66
2018-06-22T11:33:03.940Z,96066.61
2018-06-22T11:35:36.338Z,96073.64
2018-06-22T11:38:09.374Z,96058.53
2018-06-22T11:43:24.172Z,96063.63
2018-06-22T11:45:55.411Z,96068.88
2018-06-22T11:51:02.799Z,96069.67
2018-06-22T11:53:38.742Z,96068.23
2018-06-22T11:58:50.922Z,96076.67
2018-06-22T12:01:28.310Z,96069.44
2018-06-22T12:03:59.130Z,96078.00
2018-06-22T12:06:36.454Z,96079.81
2018-06-22T12:09:10.443Z,96078.60
2018-06-22T12:11:42.405Z,96081.64
2018-06-22T12:14:18.994Z,96080.11
2018-06-22T12:16:52.162Z,96077.17
2018-06-22T12:19:24.664Z,96082.77
2018-06-22T12:21:53.720Z,96072.81
2018-06-22T12:24:23.727Z,96067.89
2018-06-22T12:26:52.803Z,96074.33
2018-06-22T12:32:23.205Z,96074.87
2018-06-22T12:34:52.267Z,96073.41
2018-06-22T12:37:27.114Z,96081.26
2018-06-22T12:39:56.185Z,96088.06
2018-06-22T12:42:27.243Z,96081.45
2018-06-22T12:44:56.346Z,96078.05
2018-06-22T12:47:25.372Z,96081.31
2018-06-22T12:49:54.427Z,96082.78
2018-06-22T12:52:23.510Z,96079.84
2018-06-22T12:54:53.502Z,96081.05
2018-06-22T12:57:46.134Z,96080.46
2018-06-22T13:02:50.974Z,96078.69
2018-06-22T13:07:56.315Z,96093.80
2018-06-22T13:10:26.438Z,96101.86
2018-06-22T13:12:55.877Z,96104.31
2018-06-22T13:15:24.938Z,96109.15
2018-06-22T13:17:54.002Z,96103.05
2018-06-22T13:20:23.068Z,96104.72
2018-06-22T13:22:52.173Z,96107.39
2018-06-22T13:27:58.080Z,96112.72
2018-06-22T13:30:27.113Z,96112.70
2018-06-22T13:32:58.183Z,96111.91
2018-06-22T13:35:36.160Z,96115.14
2018-06-22T13:38:06.221Z,96114.15
2018-06-22T13:40:39.795Z,96113.08
2018-06-22T13:43:08.881Z,96113.86
2018-06-22T13:45:45.220Z,96108.55
2018-06-22T13:48:14.274Z,96109.55
2018-06-22T13:53:23.276Z,96096.34
2018-06-22T13:55:56.486Z,96100.53
2018-06-22T13:58:29.554Z,96096.97
2018-06-22T14:01:03.188Z,96092.50
2018-06-22T14:03:41.988Z,96100.17
2018-06-22T14:09:10.069Z,96105.38
2018-06-22T14:11:39.185Z,96117.22
2018-06-22T14:14:08.392Z,96127.79
2018-06-22T14:16:59.341Z,96121.80
2018-06-22T14:19:28.394Z,96119.81
2018-06-22T14:22:08.250Z,96124.34
2018-06-22T14:24:37.296Z,96120.59
2018-06-22T14:27:10.811Z,96127.02
2018-06-22T14:29:40.093Z,96127.55
2018-06-22T14:32:09.173Z,96126.34
2018-06-22T14:34:38.221Z,96122.27
2018-06-22T14:37:09.181Z,96129.75
2018-06-22T14:39:39.348Z,96123.50
2018-06-22T14:42:08.854Z,96120.24
2018-06-22T14:44:38.126Z,96119.63
2018-06-22T14:47:09.248Z,96121.48
2018-06-22T14:49:38.332Z,96135.11
2018-06-22T14:52:07.518Z,96125.19
2018-06-22T14:54:42.102Z,96122.41
2018-06-22T15:03:09.933Z,96118.50
2018-06-22T15:08:35.833Z,96130.24
2018-06-22T15:11:08.885Z,96124.93
2018-06-22T15:13:38.872Z,96128.37
2018-06-22T15:16:07.955Z,96135.55
2018-06-22T15:18:37.195Z,96136.05
2018-06-22T15:21:14.459Z,96130.10
2018-06-22T15:23:43.522Z,96125.88
2018-06-22T15:26:27.889Z,96132.70
2018-06-22T15:29:21.137Z,96129.71
2018-06-22T15:31:50.196Z,96134.08
2018-06-22T15:37:34.049Z,96132.78
2018-06-22T15:40:08.561Z,96132.64
2018-06-22T15:45:33.393Z,96134.16
2018-06-22T15:56:39.913Z,96145.26
2018-06-22T15:59:08.990Z,96137.19
2018-06-22T16:01:38.287Z,96139.95
2018-06-22T16:04:18.604Z,96139.22
2018-06-22T16:06:47.655Z,96142.70
2018-06-22T16:09:28.622Z,96146.88
2018-06-22T16:12:01.587Z,96146.82
2018-06-22T16:14:31.569Z,96140.70
2018-06-22T16:28:54.614Z,96161.75
2018-06-22T16:31:23.750Z,96163.38
2018-06-22T16:33:52.912Z,96162.00
2018-06-22T16:39:01.595Z,96172.05
2018-06-22T16:41:30.829Z,96169.54
2018-06-22T16:44:04.652Z,96173.87
2018-06-22T16:46:34.597Z,96177.30
2018-06-22T16:49:07.517Z,96171.12
2018-06-22T16:51:36.589Z,96168.98
2018-06-22T16:54:25.382Z,96180.83
2018-06-22T16:56:54.445Z,96186.40
2018-06-22T16:59:28.752Z,96185.28
2018-06-22T17:02:00.858Z,96184.34
2018-06-22T17:04:30.825Z,96179.76
2018-06-22T17:06:59.887Z,96182.66
2018-06-22T17:21:17.626Z,96192.89
2018-06-22T17:23:47.254Z,96192.20
2018-06-22T17:26:16.316Z,96192.64
2018-06-22T17:28:46.489Z,96202.50
2018-06-22T17:31:28.309Z,96200.09
2018-06-22T17:36:33.122Z,96204.84
2018-06-22T17:39:19.641Z,96207.53
2018-06-22T17:41:48.711Z,96205.84
2018-06-22T17:44:29.531Z,96206.31
2018-06-22T17:46:58.589Z,96207.16
2018-06-22T17:49:28.549Z,96210.40
2018-06-22T17:51:57.819Z,96210.61
2018-06-22T17:54:28.810Z,96211.08
2018-06-22T17:59:46.232Z,96211.41
2018-06-22T18:05:04.010Z,96211.30
2018-06-22T18:07:33.083Z,96212.86
2018-06-22T18:10:02.131Z,96210.27
2018-06-22T18:12:46.168Z,96214.20
2018-06-22T18:17:50.933Z,96223.02
2018-06-22T18:20:20.081Z,96221.37
2018-06-22T18:25:25.693Z,96220.05
2018-06-22T18:27:55.705Z,96222.95
2018-06-22T18:33:00.958Z,96228.80
2018-06-22T18:35:30.012Z,96230.63
2018-06-22T18:37:59.134Z,96231.31
2018-06-22T18:40:28.182Z,96234.60
2018-06-22T18:42:57.248Z,96232.93
2018-06-22T18:45:26.305Z,96233.13
2018-06-22T18:47:55.374Z,96241.50
2018-06-22T18:50:25.478Z,96245.77
2018-06-22T19:01:22.449Z,96241.63
2018-06-22T19:03:52.470Z,96247.20
2018-06-22T19:06:29.453Z,96251.69
2018-06-22T19:09:00.486Z,96252.85
2018-06-22T19:11:29.569Z,96253.92
2018-06-22T19:13:58.606Z,96256.30
2018-06-22T19:16:29.577Z,96255.52
2018-06-22T19:19:02.625Z,96256.22
2018-06-22T19:21:32.588Z,96255.94
2018-06-22T19:24:01.647Z,96258.15
2018-06-22T19:26:30.713Z,96257.52
2018-06-22T19:28:59.798Z,96259.28
2018-06-22T19:31:28.858Z,96260.56
2018-06-22T19:33:57.969Z,96258.98
2018-06-22T19:36:27.955Z,96265.38
2018-06-22T19:38:57.989Z,96265.82
2018-06-22T19:41:27.946Z,96272.72
2018-06-22T19:43:56.998Z,96277.91
2018-06-22T19:55:14.700Z,96298.16
2018-06-22T20:00:19.529Z,96305.19
2018-06-22T20:05:24.316Z,96311.33
2018-06-22T20:07:53.372Z,96312.58
2018-06-22T20:10:22.471Z,96314.89
2018-06-22T20:15:27.221Z,96314.06
2018-06-22T20:17:56.293Z,96309.68
2018-06-22T20:20:25.385Z,96315.83
2018-06-22T20:22:55.022Z,96319.36
2018-06-22T20:25:24.129Z,96320.98
2018-06-22T20:30:28.966Z,96328.11
2018-06-22T20:32:58.973Z,96325.23
2018-06-22T20:44:09.178Z,96325.86
2018-06-22T20:46:39.197Z,96331.58
2018-06-22T20:52:03.992Z,96338.17
2018-06-22T20:54:34.341Z,96340.41
2018-06-22T20:57:03.649Z,96338.67
2018-06-22T20:59:32.698Z,96342.42
2018-06-22T21:02:02.155Z,96346.34
2018-06-22T21:04:31.221Z,96346.40
2018-06-22T21:07:03.297Z,96348.78
2018-06-22T21:09:34.333Z,96350.62
2018-06-22T21:12:05.118Z,96352.89
2018-06-22T21:14:34.169Z,96356.45
2018-06-22T21:17:03.206Z,96358.63
2018-06-22T21:22:08.029Z,96352.62
2018-06-22T21:24:37.073Z,96357.75
2018-06-22T21:27:06.117Z,96357.00
2018-06-22T21:41:27.417Z,96359.63
2018-06-22T21:43:56.575Z,96354.73
2018-06-22T21:46:25.627Z,96357.77
2018-06-22T21:51:30.441Z,96361.19
2018-06-22T21:53:59.483Z,96365.52
2018-06-22T21:56:28.518Z,96361.59
2018-06-22T21:58:57.555Z,96366.25
2018-06-22T22:01:26.626Z,96363.14
2018-06-22T22:03:55.681Z,96359.03
2018-06-22T22:06:24.733Z,96356.00
2018-06-22T22:08:54.733Z,96358.05
2018-06-22T22:11:23.788Z,96360.05
2018-06-22T22:16:28.589Z,96358.65
2018-06-22T22:18:57.640Z,96358.54
2018-06-22T22:21:26.676Z,96363.30
2018-06-22T22:23:55.811Z,96365.23
2018-06-22T22:26:24.906Z,96359.47
2018-06-22T22:28:54.056Z,96356.48
2018-06-22T22:31:23.109Z,96356.86
2018-06-22T22:33:52.165Z,96356.70
2018-06-22T22:36:21.194Z,96354.27
2018-06-22T22:41:25.996Z,96353.84
2018-06-22T22:43:55.099Z,96356.76
2018-06-22T22:46:24.198Z,96358.65
2018-06-22T22:48:53.283Z,96357.45
2018-06-22T22:51:22.312Z,96351.19
2018-06-22T22:53:51.367Z,96350.05
2018-06-22T22:56:20.409Z,96349.37
2018-06-22T22:58:53.292Z,96349.31
2018-06-22T23:01:22.349Z,96352.05
2018-06-22T23:03:51.481Z,96355.45
2018-06-22T23:08:58.312Z,96352.32
2018-06-22T23:11:27.374Z,96353.62
2018-06-22T23:16:32.167Z,96350.54
2018-06-22T23:19:01.237Z,96356.87
2018-06-22T23:21:33.338Z,96353.29
2018-06-22T23:24:02.364Z,96354.12
2018-06-22T23:26:31.478Z,96358.37
2018-06-22T23:29:01.424Z,96355.89
2018-06-22T23:31:30.473Z,96355.98
2018-06-22T23:34:02.692Z,96355.48
2018-06-22T23:36:31.744Z,96356.89
2018-06-22T23:39:00.785Z,96357.05
2018-06-22T23:41:30.862Z,96353.16
2018-06-22T23:44:01.879Z,96350.73
2018-06-22T23:46:30.924Z,96348.58
2018-06-22T23:51:35.768Z,96348.63
2018-06-22T23:54:05.821Z,96342.82
2018-06-22T23:58:57.078Z,96334.07
